sensor_id;sensor_type;location;lat;lon;timestamp;P1;durP1;ratioP1;P2;durP2;ratioP2
42726;SDS011;28372;56.832;60.658;2022-11-15T00:01:16;3.30;;;1.30;;
42726;SDS011;28372;56.832;60.658;2022-11-15T00:04:03;4.93;;;1.23;;
42726;SDS011;28372;56.832;60.658;2022-11-15T00:06:49;2.95;;;1.23;;
42726;SDS011;28372;56.832;60.658;2022-11-15T00:09:35;2.28;;;1.05;;
42726;SDS011;28372;56.832;60.658;2022-11-15T00:12:27;2.95;;;1.20;;
42726;SDS011;28372;56.832;60.658;2022-11-15T00:15:13;3.30;;;1.30;;
42726;SDS011;28372;56.832;60.658;2022-11-15T00:18:00;3.28;;;1.20;;
42726;SDS011;28372;56.832;60.658;2022-11-15T00:20:46;2.42;;;1.00;;
42726;SDS011;28372;56.832;60.658;2022-11-15T00:23:32;4.40;;;1.02;;
42726;SDS011;28372;56.832;60.658;2022-11-15T00:26:19;1.75;;;1.20;;
42726;SDS011;28372;56.832;60.658;2022-11-15T00:29:05;2.47;;;1.08;;
42726;SDS011;28372;56.832;60.658;2022-11-15T00:31:51;2.70;;;1.52;;
42726;SDS011;28372;56.832;60.658;2022-11-15T00:34:38;3.83;;;1.73;;
42726;SDS011;28372;56.832;60.658;2022-11-15T00:37:24;2.75;;;1.38;;
42726;SDS011;28372;56.832;60.658;2022-11-15T00:40:10;3.63;;;1.35;;
42726;SDS011;28372;56.832;60.658;2022-11-15T00:42:58;4.57;;;1.42;;
42726;SDS011;28372;56.832;60.658;2022-11-15T00:45:44;2.97;;;1.42;;
42726;SDS011;28372;56.832;60.658;2022-11-15T00:48:29;3.50;;;1.52;;
42726;SDS011;28372;56.832;60.658;2022-11-15T00:51:16;3.65;;;1.45;;
42726;SDS011;28372;56.832;60.658;2022-11-15T00:54:02;3.75;;;1.63;;
42726;SDS011;28372;56.832;60.658;2022-11-15T00:56:48;3.60;;;1.50;;
42726;SDS011;28372;56.832;60.658;2022-11-15T00:59:34;3.70;;;1.60;;
42726;SDS011;28372;56.832;60.658;2022-11-15T01:02:20;2.15;;;1.10;;
42726;SDS011;28372;56.832;60.658;2022-11-15T01:05:06;3.67;;;1.77;;
42726;SDS011;28372;56.832;60.658;2022-11-15T01:07:53;3.38;;;1.42;;
42726;SDS011;28372;56.832;60.658;2022-11-15T01:10:41;3.97;;;1.55;;
42726;SDS011;28372;56.832;60.658;2022-11-15T01:13:29;3.58;;;1.60;;
42726;SDS011;28372;56.832;60.658;2022-11-15T01:16:19;3.42;;;1.40;;
42726;SDS011;28372;56.832;60.658;2022-11-15T01:19:05;3.08;;;1.40;;
42726;SDS011;28372;56.832;60.658;2022-11-15T01:21:51;3.85;;;1.35;;
42726;SDS011;28372;56.832;60.658;2022-11-15T01:24:37;3.90;;;1.52;;
42726;SDS011;28372;56.832;60.658;2022-11-15T01:27:23;4.13;;;1.92;;
42726;SDS011;28372;56.832;60.658;2022-11-15T01:30:09;3.95;;;1.83;;
42726;SDS011;28372;56.832;60.658;2022-11-15T01:32:55;4.00;;;1.90;;
42726;SDS011;28372;56.832;60.658;2022-11-15T01:35:41;3.03;;;1.52;;
42726;SDS011;28372;56.832;60.658;2022-11-15T01:38:28;4.65;;;1.40;;
42726;SDS011;28372;56.832;60.658;2022-11-15T01:41:17;3.25;;;1.33;;
42726;SDS011;28372;56.832;60.658;2022-11-15T01:47:17;2.90;;;1.00;;
42726;SDS011;28372;56.832;60.658;2022-11-15T01:50:15;3.30;;;1.27;;
42726;SDS011;28372;56.832;60.658;2022-11-15T01:53:06;2.17;;;1.17;;
42726;SDS011;28372;56.832;60.658;2022-11-15T01:55:52;4.75;;;1.40;;
42726;SDS011;28372;56.832;60.658;2022-11-15T01:58:39;3.33;;;1.65;;
42726;SDS011;28372;56.832;60.658;2022-11-15T02:01:28;2.95;;;1.17;;
42726;SDS011;28372;56.832;60.658;2022-11-15T02:04:17;3.83;;;1.58;;
42726;SDS011;28372;56.832;60.658;2022-11-15T02:07:08;6.87;;;1.83;;
42726;SDS011;28372;56.832;60.658;2022-11-15T02:10:05;22.30;;;2.45;;
42726;SDS011;28372;56.832;60.658;2022-11-15T02:12:54;4.60;;;2.13;;
42726;SDS011;28372;56.832;60.658;2022-11-15T02:15:54;5.28;;;2.10;;
42726;SDS011;28372;56.832;60.658;2022-11-15T02:19:13;8.27;;;1.73;;
42726;SDS011;28372;56.832;60.658;2022-11-15T02:35:21;6.18;;;1.40;;
42726;SDS011;28372;56.832;60.658;2022-11-15T02:38:17;4.10;;;1.80;;
42726;SDS011;28372;56.832;60.658;2022-11-15T02:41:24;4.00;;;1.60;;
42726;SDS011;28372;56.832;60.658;2022-11-15T02:44:26;3.55;;;1.70;;
42726;SDS011;28372;56.832;60.658;2022-11-15T02:47:20;3.88;;;1.40;;
42726;SDS011;28372;56.832;60.658;2022-11-15T02:50:09;12.07;;;1.63;;
42726;SDS011;28372;56.832;60.658;2022-11-15T02:52:57;2.60;;;1.45;;
42726;SDS011;28372;56.832;60.658;2022-11-15T02:55:45;3.38;;;1.30;;
42726;SDS011;28372;56.832;60.658;2022-11-15T03:08:07;3.20;;;1.30;;
42726;SDS011;28372;56.832;60.658;2022-11-15T03:11:03;4.28;;;1.70;;
42726;SDS011;28372;56.832;60.658;2022-11-15T03:14:02;4.70;;;1.60;;
42726;SDS011;28372;56.832;60.658;2022-11-15T03:17:04;4.15;;;1.55;;
42726;SDS011;28372;56.832;60.658;2022-11-15T03:19:59;3.50;;;1.40;;
42726;SDS011;28372;56.832;60.658;2022-11-15T03:22:47;2.75;;;1.30;;
42726;SDS011;28372;56.832;60.658;2022-11-15T03:25:34;6.82;;;1.58;;
42726;SDS011;28372;56.832;60.658;2022-11-15T03:29:00;5.68;;;1.33;;
42726;SDS011;28372;56.832;60.658;2022-11-15T03:31:47;2.90;;;1.20;;
42726;SDS011;28372;56.832;60.658;2022-11-15T03:34:39;5.05;;;1.85;;
42726;SDS011;28372;56.832;60.658;2022-11-15T03:40:41;5.00;;;1.48;;
42726;SDS011;28372;56.832;60.658;2022-11-15T03:43:32;2.47;;;1.45;;
42726;SDS011;28372;56.832;60.658;2022-11-15T03:46:27;3.67;;;1.70;;
42726;SDS011;28372;56.832;60.658;2022-11-15T03:49:29;4.22;;;1.60;;
42726;SDS011;28372;56.832;60.658;2022-11-15T03:52:20;9.63;;;2.17;;
42726;SDS011;28372;56.832;60.658;2022-11-15T03:55:08;2.40;;;1.42;;
42726;SDS011;28372;56.832;60.658;2022-11-15T03:57:57;3.58;;;1.50;;
42726;SDS011;28372;56.832;60.658;2022-11-15T04:00:44;2.38;;;1.20;;
42726;SDS011;28372;56.832;60.658;2022-11-15T04:03:31;3.72;;;1.48;;
42726;SDS011;28372;56.832;60.658;2022-11-15T04:06:17;3.58;;;1.17;;
42726;SDS011;28372;56.832;60.658;2022-11-15T04:09:03;3.85;;;1.77;;
42726;SDS011;28372;56.832;60.658;2022-11-15T04:11:50;2.53;;;1.33;;
42726;SDS011;28372;56.832;60.658;2022-11-15T04:14:35;4.15;;;1.33;;
42726;SDS011;28372;56.832;60.658;2022-11-15T04:17:21;2.38;;;1.00;;
42726;SDS011;28372;56.832;60.658;2022-11-15T04:20:08;2.92;;;1.40;;
42726;SDS011;28372;56.832;60.658;2022-11-15T04:23:19;2.45;;;1.15;;
42726;SDS011;28372;56.832;60.658;2022-11-15T04:26:25;2.63;;;1.23;;
42726;SDS011;28372;56.832;60.658;2022-11-15T04:29:11;2.40;;;1.33;;
42726;SDS011;28372;56.832;60.658;2022-11-15T04:32:30;3.40;;;1.27;;
42726;SDS011;28372;56.832;60.658;2022-11-15T04:35:16;16.27;;;1.80;;
42726;SDS011;28372;56.832;60.658;2022-11-15T04:38:02;3.20;;;1.35;;
42726;SDS011;28372;56.832;60.658;2022-11-15T04:40:50;3.92;;;1.20;;
42726;SDS011;28372;56.832;60.658;2022-11-15T04:43:36;5.68;;;1.35;;
42726;SDS011;28372;56.832;60.658;2022-11-15T04:46:22;2.95;;;1.60;;
42726;SDS011;28372;56.832;60.658;2022-11-15T04:49:09;3.92;;;1.50;;
42726;SDS011;28372;56.832;60.658;2022-11-15T04:51:55;6.78;;;1.60;;
42726;SDS011;28372;56.832;60.658;2022-11-15T04:54:41;6.13;;;1.73;;
42726;SDS011;28372;56.832;60.658;2022-11-15T04:57:30;3.58;;;1.40;;
42726;SDS011;28372;56.832;60.658;2022-11-15T05:00:16;2.85;;;1.40;;
42726;SDS011;28372;56.832;60.658;2022-11-15T05:03:02;3.58;;;1.55;;
42726;SDS011;28372;56.832;60.658;2022-11-15T05:06:06;2.58;;;1.27;;
42726;SDS011;28372;56.832;60.658;2022-11-15T05:08:52;4.25;;;1.65;;
42726;SDS011;28372;56.832;60.658;2022-11-15T05:11:39;4.95;;;1.48;;
42726;SDS011;28372;56.832;60.658;2022-11-15T05:14:25;2.70;;;1.23;;
42726;SDS011;28372;56.832;60.658;2022-11-15T05:17:11;4.22;;;1.10;;
42726;SDS011;28372;56.832;60.658;2022-11-15T05:19:57;3.83;;;1.35;;
42726;SDS011;28372;56.832;60.658;2022-11-15T05:22:43;5.97;;;1.33;;
42726;SDS011;28372;56.832;60.658;2022-11-15T05:25:29;2.33;;;1.13;;
42726;SDS011;28372;56.832;60.658;2022-11-15T05:28:15;4.05;;;1.10;;
42726;SDS011;28372;56.832;60.658;2022-11-15T05:31:05;4.45;;;1.08;;
42726;SDS011;28372;56.832;60.658;2022-11-15T05:33:54;4.07;;;1.40;;
42726;SDS011;28372;56.832;60.658;2022-11-15T05:36:42;4.82;;;1.55;;
42726;SDS011;28372;56.832;60.658;2022-11-15T05:39:28;3.40;;;1.33;;
42726;SDS011;28372;56.832;60.658;2022-11-15T05:42:14;3.85;;;1.45;;
42726;SDS011;28372;56.832;60.658;2022-11-15T05:45:01;5.50;;;1.30;;
42726;SDS011;28372;56.832;60.658;2022-11-15T05:47:51;2.30;;;1.10;;
42726;SDS011;28372;56.832;60.658;2022-11-15T05:50:38;4.93;;;1.20;;
42726;SDS011;28372;56.832;60.658;2022-11-15T05:53:27;3.80;;;1.42;;
42726;SDS011;28372;56.832;60.658;2022-11-15T05:56:13;4.25;;;1.88;;
42726;SDS011;28372;56.832;60.658;2022-11-15T05:58:59;3.92;;;1.50;;
42726;SDS011;28372;56.832;60.658;2022-11-15T06:01:46;2.80;;;1.40;;
42726;SDS011;28372;56.832;60.658;2022-11-15T06:04:32;3.97;;;1.30;;
42726;SDS011;28372;56.832;60.658;2022-11-15T06:07:19;3.65;;;1.10;;
42726;SDS011;28372;56.832;60.658;2022-11-15T06:10:05;3.67;;;1.23;;
42726;SDS011;28372;56.832;60.658;2022-11-15T06:13:01;2.75;;;1.20;;
42726;SDS011;28372;56.832;60.658;2022-11-15T06:15:49;3.22;;;1.23;;
42726;SDS011;28372;56.832;60.658;2022-11-15T06:18:35;2.28;;;1.10;;
42726;SDS011;28372;56.832;60.658;2022-11-15T06:21:21;4.65;;;1.27;;
42726;SDS011;28372;56.832;60.658;2022-11-15T06:24:29;2.05;;;0.90;;
42726;SDS011;28372;56.832;60.658;2022-11-15T06:30:10;3.80;;;1.40;;
42726;SDS011;28372;56.832;60.658;2022-11-15T06:33:13;3.80;;;1.13;;
42726;SDS011;28372;56.832;60.658;2022-11-15T06:36:02;3.28;;;1.00;;
42726;SDS011;28372;56.832;60.658;2022-11-15T06:39:02;2.75;;;1.00;;
42726;SDS011;28372;56.832;60.658;2022-11-15T06:41:48;3.80;;;1.33;;
42726;SDS011;28372;56.832;60.658;2022-11-15T06:44:40;3.42;;;1.33;;
42726;SDS011;28372;56.832;60.658;2022-11-15T06:47:28;2.38;;;1.20;;
42726;SDS011;28372;56.832;60.658;2022-11-15T06:50:14;3.50;;;1.40;;
42726;SDS011;28372;56.832;60.658;2022-11-15T06:53:18;2.72;;;1.25;;
42726;SDS011;28372;56.832;60.658;2022-11-15T06:56:09;2.35;;;1.00;;
42726;SDS011;28372;56.832;60.658;2022-11-15T06:58:55;2.45;;;1.20;;
42726;SDS011;28372;56.832;60.658;2022-11-15T07:01:41;2.83;;;1.17;;
42726;SDS011;28372;56.832;60.658;2022-11-15T07:04:27;2.47;;;1.27;;
42726;SDS011;28372;56.832;60.658;2022-11-15T07:07:13;2.03;;;1.10;;
42726;SDS011;28372;56.832;60.658;2022-11-15T07:10:00;2.97;;;1.30;;
42726;SDS011;28372;56.832;60.658;2022-11-15T07:12:48;1.55;;;0.80;;
42726;SDS011;28372;56.832;60.658;2022-11-15T07:15:34;2.85;;;1.13;;
42726;SDS011;28372;56.832;60.658;2022-11-15T07:18:20;3.28;;;1.48;;
42726;SDS011;28372;56.832;60.658;2022-11-15T07:21:07;2.90;;;1.15;;
42726;SDS011;28372;56.832;60.658;2022-11-15T07:23:55;3.75;;;0.98;;
42726;SDS011;28372;56.832;60.658;2022-11-15T07:26:40;4.20;;;1.75;;
42726;SDS011;28372;56.832;60.658;2022-11-15T07:29:26;2.70;;;1.25;;
42726;SDS011;28372;56.832;60.658;2022-11-15T07:32:12;3.17;;;1.33;;
42726;SDS011;28372;56.832;60.658;2022-11-15T07:34:58;2.45;;;1.10;;
42726;SDS011;28372;56.832;60.658;2022-11-15T07:37:52;3.05;;;1.10;;
42726;SDS011;28372;56.832;60.658;2022-11-15T07:40:45;3.05;;;1.02;;
42726;SDS011;28372;56.832;60.658;2022-11-15T07:43:32;2.65;;;1.00;;
42726;SDS011;28372;56.832;60.658;2022-11-15T07:46:19;2.83;;;1.20;;
42726;SDS011;28372;56.832;60.658;2022-11-15T07:49:05;3.90;;;1.50;;
42726;SDS011;28372;56.832;60.658;2022-11-15T07:51:51;3.33;;;1.38;;
42726;SDS011;28372;56.832;60.658;2022-11-15T07:54:37;4.13;;;1.65;;
42726;SDS011;28372;56.832;60.658;2022-11-15T07:57:23;3.58;;;1.30;;
42726;SDS011;28372;56.832;60.658;2022-11-15T08:00:09;2.70;;;1.38;;
42726;SDS011;28372;56.832;60.658;2022-11-15T08:03:06;2.67;;;1.10;;
42726;SDS011;28372;56.832;60.658;2022-11-15T08:05:54;2.38;;;1.27;;
42726;SDS011;28372;56.832;60.658;2022-11-15T08:08:40;3.33;;;1.30;;
42726;SDS011;28372;56.832;60.658;2022-11-15T08:11:33;2.60;;;1.40;;
42726;SDS011;28372;56.832;60.658;2022-11-15T08:14:41;3.60;;;1.30;;
42726;SDS011;28372;56.832;60.658;2022-11-15T08:17:54;4.30;;;1.45;;
42726;SDS011;28372;56.832;60.658;2022-11-15T08:21:31;3.28;;;1.35;;
42726;SDS011;28372;56.832;60.658;2022-11-15T08:28:58;4.18;;;1.10;;
42726;SDS011;28372;56.832;60.658;2022-11-15T08:31:44;3.95;;;1.83;;
42726;SDS011;28372;56.832;60.658;2022-11-15T08:34:30;3.83;;;1.30;;
42726;SDS011;28372;56.832;60.658;2022-11-15T08:37:16;6.22;;;1.60;;
42726;SDS011;28372;56.832;60.658;2022-11-15T08:40:02;3.85;;;1.58;;
42726;SDS011;28372;56.832;60.658;2022-11-15T08:42:49;3.70;;;1.58;;
42726;SDS011;28372;56.832;60.658;2022-11-15T08:45:35;3.95;;;1.50;;
42726;SDS011;28372;56.832;60.658;2022-11-15T08:48:21;3.15;;;1.50;;
42726;SDS011;28372;56.832;60.658;2022-11-15T08:51:07;5.30;;;1.27;;
42726;SDS011;28372;56.832;60.658;2022-11-15T08:53:53;4.03;;;1.23;;
42726;SDS011;28372;56.832;60.658;2022-11-15T08:56:39;6.28;;;1.75;;
42726;SDS011;28372;56.832;60.658;2022-11-15T08:59:26;6.82;;;1.90;;
42726;SDS011;28372;56.832;60.658;2022-11-15T09:02:50;3.92;;;1.55;;
42726;SDS011;28372;56.832;60.658;2022-11-15T09:05:36;8.30;;;2.10;;
42726;SDS011;28372;56.832;60.658;2022-11-15T09:08:23;5.18;;;1.58;;
42726;SDS011;28372;56.832;60.658;2022-11-15T09:11:29;5.75;;;1.80;;
42726;SDS011;28372;56.832;60.658;2022-11-15T09:14:16;4.43;;;1.30;;
42726;SDS011;28372;56.832;60.658;2022-11-15T09:17:02;6.32;;;1.75;;
42726;SDS011;28372;56.832;60.658;2022-11-15T09:19:48;5.07;;;1.55;;
42726;SDS011;28372;56.832;60.658;2022-11-15T09:22:34;4.85;;;1.60;;
42726;SDS011;28372;56.832;60.658;2022-11-15T09:25:22;4.20;;;1.90;;
42726;SDS011;28372;56.832;60.658;2022-11-15T09:28:08;6.90;;;2.08;;
42726;SDS011;28372;56.832;60.658;2022-11-15T09:31:00;3.15;;;1.55;;
42726;SDS011;28372;56.832;60.658;2022-11-15T09:33:49;7.05;;;2.13;;
42726;SDS011;28372;56.832;60.658;2022-11-15T09:36:35;4.32;;;1.75;;
42726;SDS011;28372;56.832;60.658;2022-11-15T09:39:21;6.22;;;2.15;;
42726;SDS011;28372;56.832;60.658;2022-11-15T09:42:21;5.72;;;1.70;;
42726;SDS011;28372;56.832;60.658;2022-11-15T09:51:38;4.03;;;1.60;;
42726;SDS011;28372;56.832;60.658;2022-11-15T09:54:27;5.15;;;1.80;;
42726;SDS011;28372;56.832;60.658;2022-11-15T09:57:30;5.65;;;1.50;;
42726;SDS011;28372;56.832;60.658;2022-11-15T10:00:21;4.40;;;1.75;;
42726;SDS011;28372;56.832;60.658;2022-11-15T10:05:42;4.70;;;1.95;;
42726;SDS011;28372;56.832;60.658;2022-11-15T10:10:56;6.80;;;2.08;;
42726;SDS011;28372;56.832;60.658;2022-11-15T10:13:46;5.68;;;2.22;;
42726;SDS011;28372;56.832;60.658;2022-11-15T10:21:32;6.95;;;2.30;;
42726;SDS011;28372;56.832;60.658;2022-11-15T10:24:12;6.13;;;2.35;;
42726;SDS011;28372;56.832;60.658;2022-11-15T10:26:50;7.65;;;2.88;;
42726;SDS011;28372;56.832;60.658;2022-11-15T10:29:21;7.07;;;2.42;;
42726;SDS011;28372;56.832;60.658;2022-11-15T10:31:53;8.70;;;2.88;;
42726;SDS011;28372;56.832;60.658;2022-11-15T10:34:21;7.05;;;2.92;;
42726;SDS011;28372;56.832;60.658;2022-11-15T10:39:23;6.03;;;2.58;;
42726;SDS011;28372;56.832;60.658;2022-11-15T10:41:51;9.50;;;3.17;;
42726;SDS011;28372;56.832;60.658;2022-11-15T10:44:26;9.57;;;2.90;;
42726;SDS011;28372;56.832;60.658;2022-11-15T10:49:24;7.00;;;2.65;;
42726;SDS011;28372;56.832;60.658;2022-11-15T10:55:00;7.75;;;2.60;;
42726;SDS011;28372;56.832;60.658;2022-11-15T10:57:52;8.90;;;2.92;;
42726;SDS011;28372;56.832;60.658;2022-11-15T11:05:32;8.05;;;2.65;;
42726;SDS011;28372;56.832;60.658;2022-11-15T11:11:00;8.23;;;2.70;;
42726;SDS011;28372;56.832;60.658;2022-11-15T11:19:11;8.70;;;3.35;;
42726;SDS011;28372;56.832;60.658;2022-11-15T11:24:57;7.47;;;2.80;;
42726;SDS011;28372;56.832;60.658;2022-11-15T11:27:43;8.45;;;2.83;;
42726;SDS011;28372;56.832;60.658;2022-11-15T11:30:47;6.03;;;2.40;;
42726;SDS011;28372;56.832;60.658;2022-11-15T11:35:52;7.18;;;3.05;;
42726;SDS011;28372;56.832;60.658;2022-11-15T11:41:03;10.98;;;2.97;;
42726;SDS011;28372;56.832;60.658;2022-11-15T11:50:28;7.57;;;2.75;;
42726;SDS011;28372;56.832;60.658;2022-11-15T11:55:43;7.05;;;2.75;;
42726;SDS011;28372;56.832;60.658;2022-11-15T11:58:32;6.65;;;2.45;;
42726;SDS011;28372;56.832;60.658;2022-11-15T12:03:51;8.05;;;3.20;;
42726;SDS011;28372;56.832;60.658;2022-11-15T12:09:27;6.60;;;3.13;;
42726;SDS011;28372;56.832;60.658;2022-11-15T12:17:51;7.35;;;2.80;;
42726;SDS011;28372;56.832;60.658;2022-11-15T12:20:23;6.93;;;2.97;;
42726;SDS011;28372;56.832;60.658;2022-11-15T12:23:14;7.38;;;2.90;;
42726;SDS011;28372;56.832;60.658;2022-11-15T12:25:58;5.72;;;2.42;;
42726;SDS011;28372;56.832;60.658;2022-11-15T12:29:09;6.70;;;2.95;;
42726;SDS011;28372;56.832;60.658;2022-11-15T12:34:13;7.15;;;3.05;;
42726;SDS011;28372;56.832;60.658;2022-11-15T12:36:44;5.18;;;2.53;;
42726;SDS011;28372;56.832;60.658;2022-11-15T12:39:12;7.38;;;3.38;;
42726;SDS011;28372;56.832;60.658;2022-11-15T12:47:00;6.43;;;2.42;;
42726;SDS011;28372;56.832;60.658;2022-11-15T13:02:35;6.15;;;2.88;;
42726;SDS011;28372;56.832;60.658;2022-11-15T13:18:15;6.55;;;2.85;;
42726;SDS011;28372;56.832;60.658;2022-11-15T13:20:46;6.13;;;2.35;;
42726;SDS011;28372;56.832;60.658;2022-11-15T13:23:14;5.20;;;2.45;;
42726;SDS011;28372;56.832;60.658;2022-11-15T13:28:33;5.90;;;2.58;;
42726;SDS011;28372;56.832;60.658;2022-11-15T13:33:41;7.07;;;2.72;;
42726;SDS011;28372;56.832;60.658;2022-11-15T13:36:19;5.07;;;2.05;;
42726;SDS011;28372;56.832;60.658;2022-11-15T13:39:01;6.35;;;2.60;;
42726;SDS011;28372;56.832;60.658;2022-11-15T13:41:49;9.43;;;3.58;;
42726;SDS011;28372;56.832;60.658;2022-11-15T13:44:22;6.72;;;2.75;;
42726;SDS011;28372;56.832;60.658;2022-11-15T13:47:01;7.45;;;2.60;;
42726;SDS011;28372;56.832;60.658;2022-11-15T13:49:40;7.60;;;2.42;;
42726;SDS011;28372;56.832;60.658;2022-11-15T13:52:10;7.43;;;3.28;;
42726;SDS011;28372;56.832;60.658;2022-11-15T13:54:50;7.77;;;2.80;;
42726;SDS011;28372;56.832;60.658;2022-11-15T13:57:30;6.57;;;2.75;;
42726;SDS011;28372;56.832;60.658;2022-11-15T14:02:55;7.78;;;2.97;;
42726;SDS011;28372;56.832;60.658;2022-11-15T14:05:24;6.80;;;2.95;;
42726;SDS011;28372;56.832;60.658;2022-11-15T14:07:55;6.35;;;2.83;;
42726;SDS011;28372;56.832;60.658;2022-11-15T14:11:05;5.38;;;2.53;;
42726;SDS011;28372;56.832;60.658;2022-11-15T14:16:37;5.47;;;2.40;;
42726;SDS011;28372;56.832;60.658;2022-11-15T14:24:35;6.50;;;2.17;;
42726;SDS011;28372;56.832;60.658;2022-11-15T14:27:23;5.97;;;2.17;;
42726;SDS011;28372;56.832;60.658;2022-11-15T14:29:53;7.80;;;2.97;;
42726;SDS011;28372;56.832;60.658;2022-11-15T14:32:22;5.15;;;2.17;;
42726;SDS011;28372;56.832;60.658;2022-11-15T14:34:58;6.18;;;2.45;;
42726;SDS011;28372;56.832;60.658;2022-11-15T14:37:30;8.05;;;2.70;;
42726;SDS011;28372;56.832;60.658;2022-11-15T14:40:02;6.75;;;2.20;;
42726;SDS011;28372;56.832;60.658;2022-11-15T14:42:32;6.55;;;2.72;;
42726;SDS011;28372;56.832;60.658;2022-11-15T14:44:59;8.18;;;3.55;;
42726;SDS011;28372;56.832;60.658;2022-11-15T14:47:29;9.00;;;3.40;;
42726;SDS011;28372;56.832;60.658;2022-11-15T14:49:56;7.68;;;2.80;;
42726;SDS011;28372;56.832;60.658;2022-11-15T14:54:58;9.70;;;2.97;;
42726;SDS011;28372;56.832;60.658;2022-11-15T14:57:29;7.20;;;2.65;;
42726;SDS011;28372;56.832;60.658;2022-11-15T14:59:57;6.18;;;2.83;;
42726;SDS011;28372;56.832;60.658;2022-11-15T15:02:37;6.93;;;2.35;;
42726;SDS011;28372;56.832;60.658;2022-11-15T15:05:25;6.25;;;2.28;;
42726;SDS011;28372;56.832;60.658;2022-11-15T15:08:00;9.90;;;3.47;;
42726;SDS011;28372;56.832;60.658;2022-11-15T15:10:30;6.25;;;2.50;;
42726;SDS011;28372;56.832;60.658;2022-11-15T15:13:21;6.30;;;2.58;;
42726;SDS011;28372;56.832;60.658;2022-11-15T15:15:50;7.38;;;2.67;;
42726;SDS011;28372;56.832;60.658;2022-11-15T15:18:18;8.07;;;2.40;;
42726;SDS011;28372;56.832;60.658;2022-11-15T15:20:54;10.48;;;2.97;;
42726;SDS011;28372;56.832;60.658;2022-11-15T15:23:24;8.32;;;2.63;;
42726;SDS011;28372;56.832;60.658;2022-11-15T15:25:56;5.80;;;2.28;;
42726;SDS011;28372;56.832;60.658;2022-11-15T15:28:24;6.63;;;2.20;;
42726;SDS011;28372;56.832;60.658;2022-11-15T15:30:59;7.72;;;2.83;;
42726;SDS011;28372;56.832;60.658;2022-11-15T15:33:27;10.10;;;3.42;;
42726;SDS011;28372;56.832;60.658;2022-11-15T15:35:54;6.72;;;2.42;;
42726;SDS011;28372;56.832;60.658;2022-11-15T15:38:22;5.50;;;2.10;;
42726;SDS011;28372;56.832;60.658;2022-11-15T15:40:49;10.02;;;3.42;;
42726;SDS011;28372;56.832;60.658;2022-11-15T15:43:17;7.35;;;2.42;;
42726;SDS011;28372;56.832;60.658;2022-11-15T15:45:45;6.13;;;2.63;;
42726;SDS011;28372;56.832;60.658;2022-11-15T15:48:14;6.30;;;2.22;;
42726;SDS011;28372;56.832;60.658;2022-11-15T15:50:44;6.88;;;2.20;;
42726;SDS011;28372;56.832;60.658;2022-11-15T15:53:12;6.50;;;2.22;;
42726;SDS011;28372;56.832;60.658;2022-11-15T15:55:40;4.95;;;2.10;;
42726;SDS011;28372;56.832;60.658;2022-11-15T15:58:07;5.60;;;2.47;;
42726;SDS011;28372;56.832;60.658;2022-11-15T16:00:38;7.90;;;2.83;;
42726;SDS011;28372;56.832;60.658;2022-11-15T16:03:05;10.25;;;3.50;;
42726;SDS011;28372;56.832;60.658;2022-11-15T16:05:33;5.78;;;2.47;;
42726;SDS011;28372;56.832;60.658;2022-11-15T16:08:00;9.30;;;2.88;;
42726;SDS011;28372;56.832;60.658;2022-11-15T16:10:29;5.22;;;2.35;;
42726;SDS011;28372;56.832;60.658;2022-11-15T16:12:58;6.75;;;2.60;;
42726;SDS011;28372;56.832;60.658;2022-11-15T16:15:26;6.50;;;2.08;;
42726;SDS011;28372;56.832;60.658;2022-11-15T16:17:57;7.97;;;2.15;;
42726;SDS011;28372;56.832;60.658;2022-11-15T16:23:01;3.92;;;1.40;;
42726;SDS011;28372;56.832;60.658;2022-11-15T16:28:15;5.03;;;1.70;;
42726;SDS011;28372;56.832;60.658;2022-11-15T16:30:46;3.25;;;1.42;;
42726;SDS011;28372;56.832;60.658;2022-11-15T16:33:25;4.15;;;1.95;;
42726;SDS011;28372;56.832;60.658;2022-11-15T16:35:52;5.25;;;2.20;;
42726;SDS011;28372;56.832;60.658;2022-11-15T16:38:20;3.95;;;1.63;;
42726;SDS011;28372;56.832;60.658;2022-11-15T16:40:47;5.32;;;1.90;;
42726;SDS011;28372;56.832;60.658;2022-11-15T16:43:15;4.38;;;1.90;;
42726;SDS011;28372;56.832;60.658;2022-11-15T16:45:43;3.00;;;1.40;;
42726;SDS011;28372;56.832;60.658;2022-11-15T16:48:19;5.18;;;2.15;;
42726;SDS011;28372;56.832;60.658;2022-11-15T16:50:55;7.10;;;1.98;;
42726;SDS011;28372;56.832;60.658;2022-11-15T16:53:24;6.97;;;2.10;;
42726;SDS011;28372;56.832;60.658;2022-11-15T16:55:53;5.78;;;2.35;;
42726;SDS011;28372;56.832;60.658;2022-11-15T16:58:23;2.35;;;1.23;;
42726;SDS011;28372;56.832;60.658;2022-11-15T17:00:51;6.10;;;1.85;;
42726;SDS011;28372;56.832;60.658;2022-11-15T17:03:20;4.65;;;1.67;;
42726;SDS011;28372;56.832;60.658;2022-11-15T17:05:51;5.68;;;2.28;;
42726;SDS011;28372;56.832;60.658;2022-11-15T17:08:18;4.65;;;1.50;;
42726;SDS011;28372;56.832;60.658;2022-11-15T17:10:47;3.33;;;1.60;;
42726;SDS011;28372;56.832;60.658;2022-11-15T17:13:15;3.97;;;1.33;;
42726;SDS011;28372;56.832;60.658;2022-11-15T17:15:43;2.83;;;1.45;;
42726;SDS011;28372;56.832;60.658;2022-11-15T17:18:10;1.83;;;1.02;;
42726;SDS011;28372;56.832;60.658;2022-11-15T17:20:39;2.97;;;1.38;;
42726;SDS011;28372;56.832;60.658;2022-11-15T17:23:11;3.00;;;1.40;;
42726;SDS011;28372;56.832;60.658;2022-11-15T17:25:40;2.90;;;1.10;;
42726;SDS011;28372;56.832;60.658;2022-11-15T17:28:08;3.45;;;1.50;;
42726;SDS011;28372;56.832;60.658;2022-11-15T17:30:39;3.83;;;1.30;;
42726;SDS011;28372;56.832;60.658;2022-11-15T17:33:07;4.68;;;1.10;;
42726;SDS011;28372;56.832;60.658;2022-11-15T17:35:35;2.20;;;1.25;;
42726;SDS011;28372;56.832;60.658;2022-11-15T17:38:03;2.97;;;1.10;;
42726;SDS011;28372;56.832;60.658;2022-11-15T17:40:31;3.60;;;1.08;;
42726;SDS011;28372;56.832;60.658;2022-11-15T17:42:59;4.30;;;1.77;;
42726;SDS011;28372;56.832;60.658;2022-11-15T17:45:26;3.95;;;1.27;;
42726;SDS011;28372;56.832;60.658;2022-11-15T17:47:54;4.53;;;1.67;;
42726;SDS011;28372;56.832;60.658;2022-11-15T17:50:21;4.28;;;1.40;;
42726;SDS011;28372;56.832;60.658;2022-11-15T17:52:49;4.53;;;1.50;;
42726;SDS011;28372;56.832;60.658;2022-11-15T17:55:16;3.65;;;1.20;;
42726;SDS011;28372;56.832;60.658;2022-11-15T17:57:44;2.35;;;1.42;;
42726;SDS011;28372;56.832;60.658;2022-11-15T18:00:12;4.05;;;1.23;;
42726;SDS011;28372;56.832;60.658;2022-11-15T18:02:41;1.80;;;0.90;;
42726;SDS011;28372;56.832;60.658;2022-11-15T18:05:09;2.75;;;1.00;;
42726;SDS011;28372;56.832;60.658;2022-11-15T18:07:36;1.75;;;0.93;;
42726;SDS011;28372;56.832;60.658;2022-11-15T18:10:04;3.50;;;1.45;;
42726;SDS011;28372;56.832;60.658;2022-11-15T18:12:33;3.35;;;1.10;;
42726;SDS011;28372;56.832;60.658;2022-11-15T18:15:01;2.65;;;1.27;;
42726;SDS011;28372;56.832;60.658;2022-11-15T18:17:29;1.83;;;0.77;;
42726;SDS011;28372;56.832;60.658;2022-11-15T18:19:57;5.20;;;1.38;;
42726;SDS011;28372;56.832;60.658;2022-11-15T18:22:24;2.08;;;0.70;;
42726;SDS011;28372;56.832;60.658;2022-11-15T18:24:52;2.63;;;0.90;;
42726;SDS011;28372;56.832;60.658;2022-11-15T18:27:20;1.45;;;0.70;;
42726;SDS011;28372;56.832;60.658;2022-11-15T18:29:47;2.28;;;0.98;;
42726;SDS011;28372;56.832;60.658;2022-11-15T18:32:14;3.30;;;1.10;;
42726;SDS011;28372;56.832;60.658;2022-11-15T18:34:43;1.38;;;0.68;;
42726;SDS011;28372;56.832;60.658;2022-11-15T18:37:11;2.03;;;1.10;;
42726;SDS011;28372;56.832;60.658;2022-11-15T18:39:38;2.83;;;1.23;;
42726;SDS011;28372;56.832;60.658;2022-11-15T18:42:06;3.47;;;0.85;;
42726;SDS011;28372;56.832;60.658;2022-11-15T18:44:33;1.50;;;0.80;;